Avoca, New York
Current Conditions -  °F | °C
As of 4:54 PM on Thursday 27 Nov 2014 (Local Time) from KDSV Reporting Station
Overcast Overcast  
Wind Chill: 32°   Ceiling: 7500
Heat Index: 32°   Visibility: 10mi
Dew Point: 24°   Wind: 3mph
Humidity: 73%   Direction: 300°WNW
Pressure: 30.05"   Gusts: NA
Location:  42.41°N, 77.42°W
Report Text: KDSV 272154Z AUTO 30003KT 10SM OVC075 00/M04 A3005 RMK AO2 SLP193 T00001044
Loading
Personal Weather Stations






























Interactive Weather Map New forecast layout! Learn more

10-Day Weather Forecast

Advertisements
Track Severe Weather on mobile